Terminal Aerodrome Forecast
Issued by NWS

Home | Current Version | Previous Version | Text Only | Print | Product List | Glossary On
Versions: 1 2 3 4 5 6 7 8 9 10 11 12 13 14 15 16 17
000
FTUS43 KICT 300522
TAFSLN
TAF
KSLN 300522Z 3006/3106 35014G20KT P6SM BKN015
      TEMPO 3006/3009 SCT015 BKN100
     FM300900 35015G22KT P6SM BKN015
     FM301600 35013KT P6SM BKN025
     FM301900 35011KT P6SM SCT035
     FM310000 01006KT P6SM SKC=

USA.gov is the U.S. government's official web portal to all federal, state and local government web resources and services.